sensor_id;sensor_type;location;lat;lon;timestamp;temperature;humidity
52058;DHT22;38063;53.210;6.504;2023-07-31T00:00:15;16.20;99.90
52058;DHT22;38063;53.210;6.504;2023-07-31T00:02:41;16.20;99.90
52058;DHT22;38063;53.210;6.504;2023-07-31T00:05:08;16.20;99.90
52058;DHT22;38063;53.210;6.504;2023-07-31T00:07:34;16.20;99.90
52058;DHT22;38063;53.210;6.504;2023-07-31T00:10:00;16.20;99.90
52058;DHT22;38063;53.210;6.504;2023-07-31T00:12:25;16.20;99.90
52058;DHT22;38063;53.210;6.504;2023-07-31T00:14:51;16.20;99.90
52058;DHT22;38063;53.210;6.504;2023-07-31T00:17:17;16.10;99.90
52058;DHT22;38063;53.210;6.504;2023-07-31T00:19:43;16.10;99.90
52058;DHT22;38063;53.210;6.504;2023-07-31T00:22:11;16.10;99.90
52058;DHT22;38063;53.210;6.504;2023-07-31T00:24:37;16.10;99.90
52058;DHT22;38063;53.210;6.504;2023-07-31T00:27:03;16.10;99.90
52058;DHT22;38063;53.210;6.504;2023-07-31T00:29:28;16.10;99.90
52058;DHT22;38063;53.210;6.504;2023-07-31T00:31:54;16.00;99.90
52058;DHT22;38063;53.210;6.504;2023-07-31T00:34:20;16.00;99.90
52058;DHT22;38063;53.210;6.504;2023-07-31T00:36:45;16.00;99.90
52058;DHT22;38063;53.210;6.504;2023-07-31T00:39:11;15.90;99.90
52058;DHT22;38063;53.210;6.504;2023-07-31T00:41:37;15.90;99.90
52058;DHT22;38063;53.210;6.504;2023-07-31T00:44:02;15.90;99.90
52058;DHT22;38063;53.210;6.504;2023-07-31T00:46:28;15.90;99.90
52058;DHT22;38063;53.210;6.504;2023-07-31T00:48:54;15.80;99.90
52058;DHT22;38063;53.210;6.504;2023-07-31T00:51:20;15.80;99.90
52058;DHT22;38063;53.210;6.504;2023-07-31T00:53:47;15.80;99.90
52058;DHT22;38063;53.210;6.504;2023-07-31T00:56:12;15.80;99.90
52058;DHT22;38063;53.210;6.504;2023-07-31T00:58:39;15.70;99.90
52058;DHT22;38063;53.210;6.504;2023-07-31T01:01:06;15.80;99.90
52058;DHT22;38063;53.210;6.504;2023-07-31T01:03:31;15.70;99.90
52058;DHT22;38063;53.210;6.504;2023-07-31T01:09:03;15.70;99.90
52058;DHT22;38063;53.210;6.504;2023-07-31T01:11:31;15.70;99.90
52058;DHT22;38063;53.210;6.504;2023-07-31T01:13:58;15.70;99.90
52058;DHT22;38063;53.210;6.504;2023-07-31T01:16:27;15.70;99.90
52058;DHT22;38063;53.210;6.504;2023-07-31T01:18:53;15.70;99.90
52058;DHT22;38063;53.210;6.504;2023-07-31T01:21:40;15.60;99.90
52058;DHT22;38063;53.210;6.504;2023-07-31T01:27:10;15.60;99.90
52058;DHT22;38063;53.210;6.504;2023-07-31T01:32:19;15.60;99.90
52058;DHT22;38063;53.210;6.504;2023-07-31T01:34:46;15.60;99.90
52058;DHT22;38063;53.210;6.504;2023-07-31T01:37:12;15.60;99.90
52058;DHT22;38063;53.210;6.504;2023-07-31T01:39:38;15.60;99.90
52058;DHT22;38063;53.210;6.504;2023-07-31T01:42:04;15.60;99.90
52058;DHT22;38063;53.210;6.504;2023-07-31T01:44:29;15.60;99.90
52058;DHT22;38063;53.210;6.504;2023-07-31T01:46:55;15.60;99.90
52058;DHT22;38063;53.210;6.504;2023-07-31T01:49:21;15.60;99.90
52058;DHT22;38063;53.210;6.504;2023-07-31T01:51:46;15.60;99.90
52058;DHT22;38063;53.210;6.504;2023-07-31T01:54:12;15.60;99.90
52058;DHT22;38063;53.210;6.504;2023-07-31T01:56:37;15.60;99.90
52058;DHT22;38063;53.210;6.504;2023-07-31T01:59:03;15.60;99.90
52058;DHT22;38063;53.210;6.504;2023-07-31T02:01:29;15.60;99.90
52058;DHT22;38063;53.210;6.504;2023-07-31T02:03:54;15.60;99.90
52058;DHT22;38063;53.210;6.504;2023-07-31T02:06:20;15.60;99.90
52058;DHT22;38063;53.210;6.504;2023-07-31T02:08:46;15.60;99.90
52058;DHT22;38063;53.210;6.504;2023-07-31T02:11:11;15.60;99.90
52058;DHT22;38063;53.210;6.504;2023-07-31T02:13:37;15.60;99.90
52058;DHT22;38063;53.210;6.504;2023-07-31T02:16:02;15.60;99.90
52058;DHT22;38063;53.210;6.504;2023-07-31T02:18:28;15.60;99.90
52058;DHT22;38063;53.210;6.504;2023-07-31T02:20:54;15.60;99.90
52058;DHT22;38063;53.210;6.504;2023-07-31T02:23:20;15.60;99.90
52058;DHT22;38063;53.210;6.504;2023-07-31T02:25:46;15.50;99.90
52058;DHT22;38063;53.210;6.504;2023-07-31T02:28:12;15.50;99.90
52058;DHT22;38063;53.210;6.504;2023-07-31T02:30:38;15.50;99.90
52058;DHT22;38063;53.210;6.504;2023-07-31T02:33:04;15.50;99.90
52058;DHT22;38063;53.210;6.504;2023-07-31T02:35:30;15.50;99.90
52058;DHT22;38063;53.210;6.504;2023-07-31T02:37:56;15.50;99.90
52058;DHT22;38063;53.210;6.504;2023-07-31T02:40:21;15.50;99.90
52058;DHT22;38063;53.210;6.504;2023-07-31T02:42:47;15.50;99.90
52058;DHT22;38063;53.210;6.504;2023-07-31T02:45:13;15.50;99.90
52058;DHT22;38063;53.210;6.504;2023-07-31T02:47:38;15.60;99.90
52058;DHT22;38063;53.210;6.504;2023-07-31T02:50:04;15.50;99.90
52058;DHT22;38063;53.210;6.504;2023-07-31T02:52:30;15.50;99.90
52058;DHT22;38063;53.210;6.504;2023-07-31T02:54:56;15.50;99.90
52058;DHT22;38063;53.210;6.504;2023-07-31T02:57:22;15.60;99.90
52058;DHT22;38063;53.210;6.504;2023-07-31T02:59:48;15.50;99.90
52058;DHT22;38063;53.210;6.504;2023-07-31T03:02:13;15.50;99.90
52058;DHT22;38063;53.210;6.504;2023-07-31T03:04:39;15.60;99.90
52058;DHT22;38063;53.210;6.504;2023-07-31T03:07:05;15.50;99.90
52058;DHT22;38063;53.210;6.504;2023-07-31T03:09:31;15.50;99.90
52058;DHT22;38063;53.210;6.504;2023-07-31T03:11:57;15.50;99.90
52058;DHT22;38063;53.210;6.504;2023-07-31T03:14:22;15.50;99.90
52058;DHT22;38063;53.210;6.504;2023-07-31T03:16:48;15.60;99.90
52058;DHT22;38063;53.210;6.504;2023-07-31T03:19:14;15.60;99.90
52058;DHT22;38063;53.210;6.504;2023-07-31T03:21:40;15.50;99.90
52058;DHT22;38063;53.210;6.504;2023-07-31T03:24:06;15.40;99.90
52058;DHT22;38063;53.210;6.504;2023-07-31T03:26:32;15.50;99.90
52058;DHT22;38063;53.210;6.504;2023-07-31T03:28:58;15.50;99.90
52058;DHT22;38063;53.210;6.504;2023-07-31T03:31:23;15.50;99.90
52058;DHT22;38063;53.210;6.504;2023-07-31T03:33:49;15.40;99.90
52058;DHT22;38063;53.210;6.504;2023-07-31T03:36:15;15.50;99.90
52058;DHT22;38063;53.210;6.504;2023-07-31T03:38:40;15.50;99.90
52058;DHT22;38063;53.210;6.504;2023-07-31T03:41:06;15.50;99.90
52058;DHT22;38063;53.210;6.504;2023-07-31T03:43:32;15.50;99.90
52058;DHT22;38063;53.210;6.504;2023-07-31T03:46:00;15.50;99.90
52058;DHT22;38063;53.210;6.504;2023-07-31T03:48:26;15.50;99.90
52058;DHT22;38063;53.210;6.504;2023-07-31T03:50:52;15.50;99.90
52058;DHT22;38063;53.210;6.504;2023-07-31T03:53:17;15.50;99.90
52058;DHT22;38063;53.210;6.504;2023-07-31T03:55:43;15.50;99.90
52058;DHT22;38063;53.210;6.504;2023-07-31T03:58:08;15.50;99.90
52058;DHT22;38063;53.210;6.504;2023-07-31T04:00:34;15.50;99.90
52058;DHT22;38063;53.210;6.504;2023-07-31T04:03:00;15.50;99.90
52058;DHT22;38063;53.210;6.504;2023-07-31T04:05:26;15.50;99.90
52058;DHT22;38063;53.210;6.504;2023-07-31T04:07:51;15.50;99.90
52058;DHT22;38063;53.210;6.504;2023-07-31T04:10:17;15.40;99.90
52058;DHT22;38063;53.210;6.504;2023-07-31T04:12:42;15.50;99.90
52058;DHT22;38063;53.210;6.504;2023-07-31T04:15:08;15.50;99.90
52058;DHT22;38063;53.210;6.504;2023-07-31T04:17:34;15.50;99.90
52058;DHT22;38063;53.210;6.504;2023-07-31T04:20:00;15.50;99.90
52058;DHT22;38063;53.210;6.504;2023-07-31T04:22:25;15.50;99.90
52058;DHT22;38063;53.210;6.504;2023-07-31T04:24:51;15.50;99.90
52058;DHT22;38063;53.210;6.504;2023-07-31T04:27:17;15.50;99.90
52058;DHT22;38063;53.210;6.504;2023-07-31T04:29:42;15.50;99.90
52058;DHT22;38063;53.210;6.504;2023-07-31T04:32:09;15.50;99.90
52058;DHT22;38063;53.210;6.504;2023-07-31T04:34:35;15.50;99.90
52058;DHT22;38063;53.210;6.504;2023-07-31T04:37:01;15.50;99.90
52058;DHT22;38063;53.210;6.504;2023-07-31T04:39:26;15.50;99.90
52058;DHT22;38063;53.210;6.504;2023-07-31T04:41:52;15.50;99.90
52058;DHT22;38063;53.210;6.504;2023-07-31T04:44:17;15.50;99.90
52058;DHT22;38063;53.210;6.504;2023-07-31T04:46:43;15.50;99.90
52058;DHT22;38063;53.210;6.504;2023-07-31T04:49:09;15.50;99.90
52058;DHT22;38063;53.210;6.504;2023-07-31T04:51:34;15.50;99.90
52058;DHT22;38063;53.210;6.504;2023-07-31T04:54:00;15.60;99.90
52058;DHT22;38063;53.210;6.504;2023-07-31T04:56:25;15.50;99.90
52058;DHT22;38063;53.210;6.504;2023-07-31T04:58:51;15.60;99.90
52058;DHT22;38063;53.210;6.504;2023-07-31T05:01:17;15.60;99.90
52058;DHT22;38063;53.210;6.504;2023-07-31T05:03:42;15.70;99.90
52058;DHT22;38063;53.210;6.504;2023-07-31T05:06:08;15.70;99.90
52058;DHT22;38063;53.210;6.504;2023-07-31T05:08:33;15.60;99.90
52058;DHT22;38063;53.210;6.504;2023-07-31T05:10:59;15.70;99.90
52058;DHT22;38063;53.210;6.504;2023-07-31T05:13:25;15.70;99.90
52058;DHT22;38063;53.210;6.504;2023-07-31T05:15:50;15.70;99.90
52058;DHT22;38063;53.210;6.504;2023-07-31T05:18:16;15.70;99.90
52058;DHT22;38063;53.210;6.504;2023-07-31T05:20:41;15.70;99.90
52058;DHT22;38063;53.210;6.504;2023-07-31T05:23:08;15.70;99.90
52058;DHT22;38063;53.210;6.504;2023-07-31T05:25:34;15.70;99.90
52058;DHT22;38063;53.210;6.504;2023-07-31T05:27:59;15.70;99.90
52058;DHT22;38063;53.210;6.504;2023-07-31T05:30:25;15.70;99.90
52058;DHT22;38063;53.210;6.504;2023-07-31T05:32:51;15.70;99.90
52058;DHT22;38063;53.210;6.504;2023-07-31T05:35:17;15.70;99.90
52058;DHT22;38063;53.210;6.504;2023-07-31T05:37:43;15.70;99.90
52058;DHT22;38063;53.210;6.504;2023-07-31T05:40:09;15.70;99.90
52058;DHT22;38063;53.210;6.504;2023-07-31T05:42:34;15.70;99.90
52058;DHT22;38063;53.210;6.504;2023-07-31T05:45:02;15.70;99.90
52058;DHT22;38063;53.210;6.504;2023-07-31T05:47:27;15.70;99.90
52058;DHT22;38063;53.210;6.504;2023-07-31T05:49:53;15.80;99.90
52058;DHT22;38063;53.210;6.504;2023-07-31T05:52:19;15.80;99.90
52058;DHT22;38063;53.210;6.504;2023-07-31T05:54:45;15.70;99.90
52058;DHT22;38063;53.210;6.504;2023-07-31T05:57:11;15.80;99.90
52058;DHT22;38063;53.210;6.504;2023-07-31T05:59:37;15.80;99.90
52058;DHT22;38063;53.210;6.504;2023-07-31T06:02:03;15.80;99.90
52058;DHT22;38063;53.210;6.504;2023-07-31T06:04:28;15.90;99.90
52058;DHT22;38063;53.210;6.504;2023-07-31T06:06:54;15.90;99.90
52058;DHT22;38063;53.210;6.504;2023-07-31T06:09:20;15.90;99.90
52058;DHT22;38063;53.210;6.504;2023-07-31T06:11:46;16.00;99.90
52058;DHT22;38063;53.210;6.504;2023-07-31T06:14:12;16.00;99.90
52058;DHT22;38063;53.210;6.504;2023-07-31T06:16:37;16.00;99.90
52058;DHT22;38063;53.210;6.504;2023-07-31T06:19:03;16.00;99.90
52058;DHT22;38063;53.210;6.504;2023-07-31T06:21:29;16.10;99.90
52058;DHT22;38063;53.210;6.504;2023-07-31T06:23:55;16.10;99.90
52058;DHT22;38063;53.210;6.504;2023-07-31T06:26:21;16.10;99.90
52058;DHT22;38063;53.210;6.504;2023-07-31T06:28:46;16.10;99.90
52058;DHT22;38063;53.210;6.504;2023-07-31T06:31:12;16.10;99.90
52058;DHT22;38063;53.210;6.504;2023-07-31T06:33:38;16.20;99.90
52058;DHT22;38063;53.210;6.504;2023-07-31T06:36:03;16.30;99.90
52058;DHT22;38063;53.210;6.504;2023-07-31T06:38:29;16.30;99.90
52058;DHT22;38063;53.210;6.504;2023-07-31T06:40:55;16.30;99.90
52058;DHT22;38063;53.210;6.504;2023-07-31T06:43:21;16.30;99.90
52058;DHT22;38063;53.210;6.504;2023-07-31T06:45:46;16.40;99.90
52058;DHT22;38063;53.210;6.504;2023-07-31T06:48:14;16.50;99.90
52058;DHT22;38063;53.210;6.504;2023-07-31T06:50:39;16.60;99.90
52058;DHT22;38063;53.210;6.504;2023-07-31T06:53:05;16.60;99.90
52058;DHT22;38063;53.210;6.504;2023-07-31T06:55:31;16.70;99.90
52058;DHT22;38063;53.210;6.504;2023-07-31T06:57:56;16.80;99.90
52058;DHT22;38063;53.210;6.504;2023-07-31T07:00:23;16.90;99.90
52058;DHT22;38063;53.210;6.504;2023-07-31T07:02:49;17.00;99.90
52058;DHT22;38063;53.210;6.504;2023-07-31T07:05:16;17.00;99.90
52058;DHT22;38063;53.210;6.504;2023-07-31T07:07:42;17.10;99.90
52058;DHT22;38063;53.210;6.504;2023-07-31T07:10:08;17.10;99.90
52058;DHT22;38063;53.210;6.504;2023-07-31T07:12:35;17.10;99.90
52058;DHT22;38063;53.210;6.504;2023-07-31T07:15:01;17.10;99.90
52058;DHT22;38063;53.210;6.504;2023-07-31T07:17:29;17.10;99.90
52058;DHT22;38063;53.210;6.504;2023-07-31T07:19:58;17.10;99.90
52058;DHT22;38063;53.210;6.504;2023-07-31T07:22:24;17.10;99.90
52058;DHT22;38063;53.210;6.504;2023-07-31T07:24:51;17.10;99.90
52058;DHT22;38063;53.210;6.504;2023-07-31T07:27:16;17.10;99.90
52058;DHT22;38063;53.210;6.504;2023-07-31T07:29:42;17.10;99.90
52058;DHT22;38063;53.210;6.504;2023-07-31T07:32:08;17.10;99.90
52058;DHT22;38063;53.210;6.504;2023-07-31T07:34:33;17.10;99.90
52058;DHT22;38063;53.210;6.504;2023-07-31T07:36:59;17.00;99.90
52058;DHT22;38063;53.210;6.504;2023-07-31T07:39:25;17.00;99.90
52058;DHT22;38063;53.210;6.504;2023-07-31T07:41:50;17.10;99.90
52058;DHT22;38063;53.210;6.504;2023-07-31T07:44:16;17.10;99.90
52058;DHT22;38063;53.210;6.504;2023-07-31T07:46:43;17.10;99.90
52058;DHT22;38063;53.210;6.504;2023-07-31T07:49:08;17.10;99.90
52058;DHT22;38063;53.210;6.504;2023-07-31T07:51:34;17.10;99.90
52058;DHT22;38063;53.210;6.504;2023-07-31T07:54:00;17.10;99.90
52058;DHT22;38063;53.210;6.504;2023-07-31T07:56:26;17.10;99.90
52058;DHT22;38063;53.210;6.504;2023-07-31T07:58:53;17.10;99.90
52058;DHT22;38063;53.210;6.504;2023-07-31T08:01:19;17.10;99.90
52058;DHT22;38063;53.210;6.504;2023-07-31T08:03:46;17.10;99.90
52058;DHT22;38063;53.210;6.504;2023-07-31T08:06:11;17.10;99.90
52058;DHT22;38063;53.210;6.504;2023-07-31T08:08:38;17.20;99.90
52058;DHT22;38063;53.210;6.504;2023-07-31T08:11:03;17.20;99.90
52058;DHT22;38063;53.210;6.504;2023-07-31T08:13:29;17.10;99.90
52058;DHT22;38063;53.210;6.504;2023-07-31T08:15:55;17.10;99.90
52058;DHT22;38063;53.210;6.504;2023-07-31T08:18:21;17.20;99.90
52058;DHT22;38063;53.210;6.504;2023-07-31T08:20:47;17.20;99.90
52058;DHT22;38063;53.210;6.504;2023-07-31T08:23:13;17.30;99.90
52058;DHT22;38063;53.210;6.504;2023-07-31T08:25:39;17.30;99.90
52058;DHT22;38063;53.210;6.504;2023-07-31T08:28:05;17.30;99.90
52058;DHT22;38063;53.210;6.504;2023-07-31T08:30:32;17.30;99.90
52058;DHT22;38063;53.210;6.504;2023-07-31T08:32:59;17.40;99.90
52058;DHT22;38063;53.210;6.504;2023-07-31T08:35:25;17.50;99.90
52058;DHT22;38063;53.210;6.504;2023-07-31T08:37:51;17.60;99.90
52058;DHT22;38063;53.210;6.504;2023-07-31T08:40:17;17.60;99.90
52058;DHT22;38063;53.210;6.504;2023-07-31T08:42:47;17.70;99.90
52058;DHT22;38063;53.210;6.504;2023-07-31T08:45:15;17.70;99.90
52058;DHT22;38063;53.210;6.504;2023-07-31T08:47:46;17.90;99.90
52058;DHT22;38063;53.210;6.504;2023-07-31T08:50:13;17.80;99.90
52058;DHT22;38063;53.210;6.504;2023-07-31T08:52:39;17.80;99.90
52058;DHT22;38063;53.210;6.504;2023-07-31T08:55:06;17.80;99.90
52058;DHT22;38063;53.210;6.504;2023-07-31T08:57:34;17.80;99.90
52058;DHT22;38063;53.210;6.504;2023-07-31T09:00:02;17.80;99.90
52058;DHT22;38063;53.210;6.504;2023-07-31T09:02:34;17.80;99.90
52058;DHT22;38063;53.210;6.504;2023-07-31T09:05:02;17.90;99.90
52058;DHT22;38063;53.210;6.504;2023-07-31T09:07:29;17.90;99.90
52058;DHT22;38063;53.210;6.504;2023-07-31T09:09:57;17.90;99.90
52058;DHT22;38063;53.210;6.504;2023-07-31T09:12:23;17.90;99.90
52058;DHT22;38063;53.210;6.504;2023-07-31T09:14:49;18.00;99.90
52058;DHT22;38063;53.210;6.504;2023-07-31T09:17:14;17.90;99.90
52058;DHT22;38063;53.210;6.504;2023-07-31T09:19:40;18.00;99.90
52058;DHT22;38063;53.210;6.504;2023-07-31T09:22:06;18.00;99.90
52058;DHT22;38063;53.210;6.504;2023-07-31T09:24:33;18.00;99.90
52058;DHT22;38063;53.210;6.504;2023-07-31T09:27:00;18.00;99.90
52058;DHT22;38063;53.210;6.504;2023-07-31T09:29:28;18.00;99.90
52058;DHT22;38063;53.210;6.504;2023-07-31T09:31:54;18.00;99.90
52058;DHT22;38063;53.210;6.504;2023-07-31T09:34:27;18.00;99.90
52058;DHT22;38063;53.210;6.504;2023-07-31T09:36:53;18.00;99.90
52058;DHT22;38063;53.210;6.504;2023-07-31T09:39:19;17.90;99.90
52058;DHT22;38063;53.210;6.504;2023-07-31T09:41:54;17.90;99.90
52058;DHT22;38063;53.210;6.504;2023-07-31T09:44:20;17.90;99.90
52058;DHT22;38063;53.210;6.504;2023-07-31T09:46:46;17.90;99.90
52058;DHT22;38063;53.210;6.504;2023-07-31T09:49:13;18.00;99.90
52058;DHT22;38063;53.210;6.504;2023-07-31T09:51:41;18.00;99.90
52058;DHT22;38063;53.210;6.504;2023-07-31T09:54:15;18.00;99.90
52058;DHT22;38063;53.210;6.504;2023-07-31T09:56:43;18.00;99.90
52058;DHT22;38063;53.210;6.504;2023-07-31T09:59:14;18.10;99.90
52058;DHT22;38063;53.210;6.504;2023-07-31T10:01:41;18.10;99.90
52058;DHT22;38063;53.210;6.504;2023-07-31T10:04:08;18.10;99.90
52058;DHT22;38063;53.210;6.504;2023-07-31T10:06:36;18.20;99.90
52058;DHT22;38063;53.210;6.504;2023-07-31T10:09:04;18.20;99.90
52058;DHT22;38063;53.210;6.504;2023-07-31T10:11:38;18.30;99.90
52058;DHT22;38063;53.210;6.504;2023-07-31T10:14:07;18.40;99.90
52058;DHT22;38063;53.210;6.504;2023-07-31T10:16:37;18.40;99.90
52058;DHT22;38063;53.210;6.504;2023-07-31T10:19:03;18.50;99.90
52058;DHT22;38063;53.210;6.504;2023-07-31T10:21:31;18.50;99.90
52058;DHT22;38063;53.210;6.504;2023-07-31T10:24:03;18.50;99.90
52058;DHT22;38063;53.210;6.504;2023-07-31T10:26:29;18.40;99.90
52058;DHT22;38063;53.210;6.504;2023-07-31T10:28:57;18.40;99.90
52058;DHT22;38063;53.210;6.504;2023-07-31T10:31:24;18.40;99.90
52058;DHT22;38063;53.210;6.504;2023-07-31T10:33:51;18.40;99.90
52058;DHT22;38063;53.210;6.504;2023-07-31T10:36:18;18.50;99.90
52058;DHT22;38063;53.210;6.504;2023-07-31T10:38:45;18.60;99.90
52058;DHT22;38063;53.210;6.504;2023-07-31T10:41:10;18.50;99.90
52058;DHT22;38063;53.210;6.504;2023-07-31T10:43:39;18.50;99.90
52058;DHT22;38063;53.210;6.504;2023-07-31T10:46:12;18.50;99.90
52058;DHT22;38063;53.210;6.504;2023-07-31T10:48:40;18.50;99.90
52058;DHT22;38063;53.210;6.504;2023-07-31T10:51:11;18.50;99.90
52058;DHT22;38063;53.210;6.504;2023-07-31T10:53:42;18.40;99.90
52058;DHT22;38063;53.210;6.504;2023-07-31T10:56:09;18.40;99.90
52058;DHT22;38063;53.210;6.504;2023-07-31T10:58:36;18.40;99.90
52058;DHT22;38063;53.210;6.504;2023-07-31T11:01:04;18.40;99.90
52058;DHT22;38063;53.210;6.504;2023-07-31T11:03:48;18.50;99.90
52058;DHT22;38063;53.210;6.504;2023-07-31T11:06:16;18.60;99.90
52058;DHT22;38063;53.210;6.504;2023-07-31T11:11:13;18.80;99.90
52058;DHT22;38063;53.210;6.504;2023-07-31T11:13:40;18.90;99.90
52058;DHT22;38063;53.210;6.504;2023-07-31T11:16:06;19.00;99.90
52058;DHT22;38063;53.210;6.504;2023-07-31T11:18:32;19.10;99.90
52058;DHT22;38063;53.210;6.504;2023-07-31T11:20:58;19.10;99.90
52058;DHT22;38063;53.210;6.504;2023-07-31T11:23:24;19.10;99.90
52058;DHT22;38063;53.210;6.504;2023-07-31T11:25:50;19.00;99.90
52058;DHT22;38063;53.210;6.504;2023-07-31T11:28:17;19.10;99.90
52058;DHT22;38063;53.210;6.504;2023-07-31T11:30:45;19.00;99.90
52058;DHT22;38063;53.210;6.504;2023-07-31T11:33:12;18.90;99.90
52058;DHT22;38063;53.210;6.504;2023-07-31T11:35:44;18.90;99.90
52058;DHT22;38063;53.210;6.504;2023-07-31T11:38:12;18.80;99.90
52058;DHT22;38063;53.210;6.504;2023-07-31T11:40:46;18.70;99.90
52058;DHT22;38063;53.210;6.504;2023-07-31T11:43:11;18.60;99.90
52058;DHT22;38063;53.210;6.504;2023-07-31T11:45:41;18.60;99.90
52058;DHT22;38063;53.210;6.504;2023-07-31T11:48:07;18.60;99.90
52058;DHT22;38063;53.210;6.504;2023-07-31T11:50:33;18.60;99.90
52058;DHT22;38063;53.210;6.504;2023-07-31T11:53:04;18.60;99.90
52058;DHT22;38063;53.210;6.504;2023-07-31T11:55:33;18.60;99.90
52058;DHT22;38063;53.210;6.504;2023-07-31T11:57:59;18.60;99.90
52058;DHT22;38063;53.210;6.504;2023-07-31T12:00:26;18.60;99.90
52058;DHT22;38063;53.210;6.504;2023-07-31T12:02:52;18.80;99.90
52058;DHT22;38063;53.210;6.504;2023-07-31T12:05:18;18.90;99.90
52058;DHT22;38063;53.210;6.504;2023-07-31T12:10:11;19.00;99.90
52058;DHT22;38063;53.210;6.504;2023-07-31T12:12:37;19.10;99.90
52058;DHT22;38063;53.210;6.504;2023-07-31T12:15:03;19.10;99.90
52058;DHT22;38063;53.210;6.504;2023-07-31T12:17:38;19.20;99.90
52058;DHT22;38063;53.210;6.504;2023-07-31T12:20:05;19.30;99.90
52058;DHT22;38063;53.210;6.504;2023-07-31T12:22:32;19.30;99.90
52058;DHT22;38063;53.210;6.504;2023-07-31T12:24:58;19.30;99.90
52058;DHT22;38063;53.210;6.504;2023-07-31T12:27:24;19.30;99.90
52058;DHT22;38063;53.210;6.504;2023-07-31T12:29:51;19.30;99.90
52058;DHT22;38063;53.210;6.504;2023-07-31T12:32:24;19.30;99.90
52058;DHT22;38063;53.210;6.504;2023-07-31T12:34:51;19.30;99.90
52058;DHT22;38063;53.210;6.504;2023-07-31T12:37:17;19.50;99.90
52058;DHT22;38063;53.210;6.504;2023-07-31T12:39:43;19.50;99.90
52058;DHT22;38063;53.210;6.504;2023-07-31T12:42:08;19.60;99.90
52058;DHT22;38063;53.210;6.504;2023-07-31T12:44:34;19.50;99.90
52058;DHT22;38063;53.210;6.504;2023-07-31T12:46:59;19.50;99.90
52058;DHT22;38063;53.210;6.504;2023-07-31T12:49:25;19.60;99.90
52058;DHT22;38063;53.210;6.504;2023-07-31T12:51:51;19.70;99.90
52058;DHT22;38063;53.210;6.504;2023-07-31T12:54:16;19.70;99.90
52058;DHT22;38063;53.210;6.504;2023-07-31T12:56:42;19.70;99.90
52058;DHT22;38063;53.210;6.504;2023-07-31T12:59:08;19.70;99.90
52058;DHT22;38063;53.210;6.504;2023-07-31T13:01:33;19.70;99.90
52058;DHT22;38063;53.210;6.504;2023-07-31T13:03:59;19.70;99.90
52058;DHT22;38063;53.210;6.504;2023-07-31T13:06:25;19.60;99.90
52058;DHT22;38063;53.210;6.504;2023-07-31T13:08:51;19.60;99.90
52058;DHT22;38063;53.210;6.504;2023-07-31T13:11:17;19.60;99.90
52058;DHT22;38063;53.210;6.504;2023-07-31T13:13:42;19.70;99.90
52058;DHT22;38063;53.210;6.504;2023-07-31T13:16:08;19.80;99.90
52058;DHT22;38063;53.210;6.504;2023-07-31T13:18:34;19.80;99.90
52058;DHT22;38063;53.210;6.504;2023-07-31T13:20:59;19.80;99.90
52058;DHT22;38063;53.210;6.504;2023-07-31T13:23:25;19.80;99.90
52058;DHT22;38063;53.210;6.504;2023-07-31T13:25:51;19.80;99.90
52058;DHT22;38063;53.210;6.504;2023-07-31T13:28:16;19.90;99.90
52058;DHT22;38063;53.210;6.504;2023-07-31T13:30:42;19.90;99.90
52058;DHT22;38063;53.210;6.504;2023-07-31T13:33:08;19.90;99.90
52058;DHT22;38063;53.210;6.504;2023-07-31T13:35:33;19.90;99.90
52058;DHT22;38063;53.210;6.504;2023-07-31T13:37:59;19.90;99.90
52058;DHT22;38063;53.210;6.504;2023-07-31T13:40:25;19.90;99.90
52058;DHT22;38063;53.210;6.504;2023-07-31T13:42:50;19.90;99.90
52058;DHT22;38063;53.210;6.504;2023-07-31T13:45:16;20.00;99.90
52058;DHT22;38063;53.210;6.504;2023-07-31T13:47:42;20.00;99.90
52058;DHT22;38063;53.210;6.504;2023-07-31T13:50:08;20.20;99.90
52058;DHT22;38063;53.210;6.504;2023-07-31T13:52:33;20.30;99.90
52058;DHT22;38063;53.210;6.504;2023-07-31T13:54:59;20.40;99.90
52058;DHT22;38063;53.210;6.504;2023-07-31T13:57:25;20.60;99.90
52058;DHT22;38063;53.210;6.504;2023-07-31T13:59:50;20.70;99.90
52058;DHT22;38063;53.210;6.504;2023-07-31T14:02:16;20.90;99.90
52058;DHT22;38063;53.210;6.504;2023-07-31T14:04:42;20.90;99.90
52058;DHT22;38063;53.210;6.504;2023-07-31T14:07:07;21.00;99.90
52058;DHT22;38063;53.210;6.504;2023-07-31T14:09:33;20.90;99.90
52058;DHT22;38063;53.210;6.504;2023-07-31T14:11:59;20.80;99.90
52058;DHT22;38063;53.210;6.504;2023-07-31T14:14:24;20.70;99.90
52058;DHT22;38063;53.210;6.504;2023-07-31T14:16:50;20.50;99.90
52058;DHT22;38063;53.210;6.504;2023-07-31T14:19:15;20.40;99.90
52058;DHT22;38063;53.210;6.504;2023-07-31T14:21:41;20.40;99.90
52058;DHT22;38063;53.210;6.504;2023-07-31T14:24:07;20.30;99.90
52058;DHT22;38063;53.210;6.504;2023-07-31T14:26:33;20.20;99.90
52058;DHT22;38063;53.210;6.504;2023-07-31T14:28:58;20.10;99.90
52058;DHT22;38063;53.210;6.504;2023-07-31T14:31:24;20.20;99.90
52058;DHT22;38063;53.210;6.504;2023-07-31T14:33:50;20.10;99.90
52058;DHT22;38063;53.210;6.504;2023-07-31T14:36:15;20.20;99.90
52058;DHT22;38063;53.210;6.504;2023-07-31T14:38:41;20.20;99.90
52058;DHT22;38063;53.210;6.504;2023-07-31T14:41:06;20.20;99.90
52058;DHT22;38063;53.210;6.504;2023-07-31T14:43:32;20.20;99.90
52058;DHT22;38063;53.210;6.504;2023-07-31T14:45:58;20.20;99.90
52058;DHT22;38063;53.210;6.504;2023-07-31T14:48:26;20.20;99.90
52058;DHT22;38063;53.210;6.504;2023-07-31T14:50:52;20.30;99.90
52058;DHT22;38063;53.210;6.504;2023-07-31T14:53:17;20.20;99.90
52058;DHT22;38063;53.210;6.504;2023-07-31T14:55:43;20.20;99.90
52058;DHT22;38063;53.210;6.504;2023-07-31T14:58:08;20.20;99.90
52058;DHT22;38063;53.210;6.504;2023-07-31T15:00:36;20.10;99.90
52058;DHT22;38063;53.210;6.504;2023-07-31T15:03:02;20.10;99.90
52058;DHT22;38063;53.210;6.504;2023-07-31T15:05:28;20.00;99.90
52058;DHT22;38063;53.210;6.504;2023-07-31T15:07:54;20.00;99.90
52058;DHT22;38063;53.210;6.504;2023-07-31T15:10:20;19.90;99.90
52058;DHT22;38063;53.210;6.504;2023-07-31T15:12:45;19.90;99.90
52058;DHT22;38063;53.210;6.504;2023-07-31T15:15:11;19.90;99.90
52058;DHT22;38063;53.210;6.504;2023-07-31T15:17:37;19.90;99.90
52058;DHT22;38063;53.210;6.504;2023-07-31T15:20:03;19.90;99.90
52058;DHT22;38063;53.210;6.504;2023-07-31T15:22:29;19.90;99.90
52058;DHT22;38063;53.210;6.504;2023-07-31T15:24:56;19.90;99.90
52058;DHT22;38063;53.210;6.504;2023-07-31T15:27:21;19.90;99.90
52058;DHT22;38063;53.210;6.504;2023-07-31T15:29:49;19.80;99.90
52058;DHT22;38063;53.210;6.504;2023-07-31T15:32:16;19.80;99.90
52058;DHT22;38063;53.210;6.504;2023-07-31T15:34:43;19.80;99.90
52058;DHT22;38063;53.210;6.504;2023-07-31T15:37:09;19.80;99.90